Hlavní strana
METAR-TAF:

METAR-TAF

Letiště :

Havana, Kuba

zeměpisná šířka: 22-59N, zeměpisná délka: 082-24W, výška: 59 m

Aktuální stav počasí

Zpráva byla vytvořena před 50 minutami, v 09:55 UTC
Východoseverovýchodní vítr 2 kt
Teplota 22°C
Vlhkost vzduchu 100%
Tlak 1016 hPa
Viditelnost: 9000 m
Skoro jasno ve výšce 4500 ft

METAR: MUHA 260955Z 07002KT 9000 FEW045 22/22 Q1016

Čas: 06:45 (10:45 UTC)

Předpověď počasí

Zpráva byla vytvořena před 5 hodinami a 45 minutami, v 05:00 UTC
Předpověď platná od 26 v 06 UTC do 27 v 06 UTC
Východní vítr 8 kt
Viditelnost: 9000 m
Skoro jasno ve výšce 3000 ft
Dočasný
od 26 v 22 UTC do 27 v 06 UTC
vítr z různých směrů 10 kt
Viditelnost: 3000 m
Oblačno až skoro zataženo ve výšce 2000 ft, Cumulonimbus.
bouřka, déšť

TAF: MUHA 260500Z 2606/2706 09008KT 9000 FEW030 TEMPO 2622/2706 VRB10KT 3000 TSRA BKN020CB

Stav a předpovědi počasí z více než 4 000 letišť (zprávy METAR a TAF).

Červené a žluté tečky na mapě představují dostupné meteorologické stanice.

Když kurzor umístíte na tečku, zobrazí se název stanice.

Pak kliknutím zobrazíte stav a předpověď počasí.

Chcete-li změnit mapu, kliknutím na zelené tlačítko se znaménkem +mapu přiblížíte, kliknutím na zelené tlačítko se znaménkem – mapu oddálíte a kliknutím na zelené šipky přejdete na sousední mapy.


METAR-TAF: